PORTS® Data Listing: 8637689 Yorktown USCG Training Center, VA

CO-OPS RAW PORTS DATA

************************      PRELIMINARY DATA      ************************** 

     THIS RAW DATA HAS NOT BEEN SUBJECT TO THE NATIONAL OCEAN SERVICE'S        
     QUALITY CONTROL OR QUALITY ASSURANCE PROCEDURES AND DOES NOT MEET         
     THE CRITERIA AND STANDARDS OF OFFICIAL NATIONAL OCEAN SERVICE             
     DATA.  IT IS RELEASED FOR LIMITED PUBLIC USE AS PRELIMINARY DATA TO       
     BE USED ONLY WITH APPROPRIATE CAUTION.                                    

************************      PRELIMINARY DATA      ************************** 


       CD   -   Calendar date
       T    -   Time
       TZ   -   Timezone
       PW   -   Predicted water level (feet above MLLW)
       OW   -   Observed water level (feet above MLLW)
       WS   -   Wind speed (knots)
       WD   -   Wind direction (degrees true)
       WG   -   Wind gust (knots)
       AT   -   Air temperature (degrees farenheit)
       WT   -   Water temperature (degrees farenheit)
       AP   -   Air pressure (millibars)
       SA   -   Salinty (PSU - Practical Salinity Units)
       SG   -   Specific gravity
       RH   -   Relative humidity
       AG   -   Air gap (feet)
       VI   -   Visibility (nautical miles)

       ** NOTE **
       A variable that has its data fields filled with "9"s, indicates that
       data was not collected for that sample period.
       **********


STATION NAME: Yorktown USCG Training Center (8637689)
****************************************************************************************************
    CD       T    TZ    PW     OW    WS   WD   WG    AT    WT    AP    SA    SG     RH    AG   VI
****************************************************************************************************
2019/12/09 22:18 EST    0.89   1.09   10  235   17  63.7  48.9 1013.1 19.6  1.016 -99.9 -99.99 -9.99
2019/12/09 22:24 EST    0.83   1.03   11  233   18  63.9  48.7 1013.1 19.6  1.016 -99.9 -99.99 -9.99
2019/12/09 22:30 EST    0.78   0.97   13  229   22  64.0  48.7 1013.0 19.6  1.016 -99.9 -99.99 -9.99
2019/12/09 22:36 EST    0.73   0.91   14  227   20  64.0  48.7 1013.0 19.6  1.016 -99.9 -99.99 -9.99
2019/12/09 22:42 EST    0.68   0.85   13  229   18  64.2  48.7 1012.9 19.7  1.016 -99.9 -99.99 -9.99
2019/12/09 22:48 EST    0.63   0.80   12  220   15  63.7  48.7 1013.0 19.8  1.016 -99.9 -99.99 -9.99
2019/12/09 22:54 EST    0.57   0.75   12  230   17  64.0  48.7 1013.0 19.6  1.016 -99.9 -99.99 -9.99
2019/12/09 23:00 EST    0.52   0.69   12  223   17  63.9  48.7 1012.9 19.7  1.016 -99.9 -99.99 -9.99
2019/12/09 23:06 EST    0.47   0.62   11  219   19  63.7  48.7 1012.9 19.7  1.016 -99.9 -99.99 -9.99
2019/12/09 23:12 EST    0.43   0.57   12  218   18  63.9  48.7 1012.8 19.7  1.016 -99.9 -99.99 -9.99
2019/12/09 23:18 EST    0.38   0.52   10  220   16  63.9  48.7 1012.6 19.7  1.016 -99.9 -99.99 -9.99
2019/12/09 23:24 EST    0.33   0.48   10  221   18  63.3  48.7 1012.6 19.7  1.016 -99.9 -99.99 -9.99
2019/12/09 23:30 EST    0.29   0.43   11  219   18  63.7  48.7 1012.6 19.8  1.016 -99.9 -99.99 -9.99
2019/12/09 23:36 EST    0.24   0.38   14  223   18  63.9  48.7 1012.5 19.8  1.016 -99.9 -99.99 -9.99
2019/12/09 23:42 EST    0.20   0.34   13  228   16  64.0  48.7 1012.5 19.9  1.016 -99.9 -99.99 -9.99
2019/12/09 23:48 EST    0.16   0.30   13  226   17  64.0  48.6 1012.4 19.9  1.016 -99.9 -99.99 -9.99
2019/12/09 23:54 EST    0.13   0.26   13  223   17  63.9  48.7 1012.4 19.9  1.016 -99.9 -99.99 -9.99
2019/12/10 00:00 EST    0.09   0.22   13  225   17  64.2  48.9 1012.5 19.9  1.016 -99.9 -99.99 -9.99
2019/12/10 00:06 EST    0.06   0.19   12  229   17  64.2  48.9 1012.5 19.9  1.016 -99.9 -99.99 -9.99
2019/12/10 00:12 EST    0.03   0.15   13  229   20  64.2  49.1 1012.5 19.8  1.016 -99.9 -99.99 -9.99
2019/12/10 00:18 EST   -0.00   0.12   13  231   18  64.2  48.9 1012.6 19.8  1.016 -99.9 -99.99 -9.99
2019/12/10 00:24 EST   -0.03   0.09   13  229   17  64.0  49.1 1012.6 19.9  1.016 -99.9 -99.99 -9.99
2019/12/10 00:30 EST   -0.05   0.07   11  235   18  64.0  49.1 1012.6 19.9  1.016 -99.9 -99.99 -9.99
2019/12/10 00:36 EST   -0.07   0.05   11  233   20  63.7  49.1 1012.6 19.7  1.016 -99.9 -99.99 -9.99
2019/12/10 00:42 EST   -0.09   0.04   12  230   17  63.9  49.1 1012.6 19.8  1.016 -99.9 -99.99 -9.99
2019/12/10 00:48 EST   -0.10   0.02   13  233   17  64.2  49.1 1012.6 19.9  1.016 -99.9 -99.99 -9.99
2019/12/10 00:54 EST   -0.11   0.02   13  233   16  64.2  49.1 1012.7 19.8  1.016 -99.9 -99.99 -9.99
2019/12/10 01:00 EST   -0.12   0.02   13  225   19  64.4  49.1 1012.7 19.7  1.016 -99.9 -99.99 -9.99
2019/12/10 01:06 EST   -0.12   0.01   12  229   18  64.4  49.1 1012.6 19.8  1.016 -99.9 -99.99 -9.99
2019/12/10 01:12 EST   -0.12   0.00   10  223   18  63.9  49.1 1012.6 19.9  1.016 -99.9 -99.99 -9.99
2019/12/10 01:18 EST   -0.12  -0.01   10  227   18  63.9  49.1 1012.5 19.9  1.016 -99.9 -99.99 -9.99
2019/12/10 01:24 EST   -0.12  -0.01   12  219   15  64.0  49.1 1012.5 19.9  1.016 -99.9 -99.99 -9.99
2019/12/10 01:30 EST   -0.11  -0.01   10  226   14  63.7  49.1 1012.5 19.8  1.016 -99.9 -99.99 -9.99
2019/12/10 01:36 EST   -0.10  -0.00   11  223   17  63.9  49.1 1012.5 20.0  1.016 -99.9 -99.99 -9.99
2019/12/10 01:42 EST   -0.09   0.00   14  224   19  64.0  49.1 1012.5 19.7  1.016 -99.9 -99.99 -9.99
2019/12/10 01:48 EST   -0.07   0.01   10  219   14  63.9  49.3 1012.5 19.6  1.016 -99.9 -99.99 -9.99
2019/12/10 01:54 EST   -0.05   0.02   10  225   16  63.7  49.1 1012.5 19.5  1.016 -99.9 -99.99 -9.99
2019/12/10 02:00 EST   -0.03   0.03   12  221   16  63.9  49.1 1012.5 19.5  1.016 -99.9 -99.99 -9.99
2019/12/10 02:06 EST   -0.01   0.06   11  228   15  63.9  49.1 1012.6 19.6  1.016 -99.9 -99.99 -9.99
2019/12/10 02:12 EST    0.02   0.08   10  218   16  63.9  49.1 1012.6 19.6  1.016 -99.9 -99.99 -9.99
2019/12/10 02:18 EST    0.05   0.11   11  221   18  63.9  49.1 1012.6 19.6  1.016 -99.9 -99.99 -9.99
2019/12/10 02:24 EST    0.08   0.14   12  219   18  63.9  49.1 1012.6 19.6  1.016 -99.9 -99.99 -9.99
2019/12/10 02:30 EST    0.11   0.17   10  227   15  63.7  49.1 1012.7 19.5  1.016 -99.9 -99.99 -9.99
2019/12/10 02:36 EST    0.15   0.19   10  222   16  63.9  49.3 1012.7 19.5  1.016 -99.9 -99.99 -9.99
2019/12/10 02:42 EST    0.18   0.21   11  226   14  63.7  49.1 1012.7 19.5  1.016 -99.9 -99.99 -9.99
2019/12/10 02:48 EST    0.22   0.24   11  228   17  63.9  49.1 1012.6 19.6  1.016 -99.9 -99.99 -9.99
2019/12/10 02:54 EST    0.26   0.27   10  219   15  63.7  49.3 1012.5 19.4  1.016 -99.9 -99.99 -9.99
2019/12/10 03:00 EST    0.31   0.29   12  217   15  63.7  49.3 1012.5 19.4  1.016 -99.9 -99.99 -9.99
2019/12/10 03:06 EST    0.35   0.32   11  219   14  63.7  49.3 1012.3 19.5  1.016 -99.9 -99.99 -9.99
2019/12/10 03:12 EST    0.40   0.35   13  213   16  63.9  49.3 1012.2 19.5  1.016 -99.9 -99.99 -9.99
2019/12/10 03:18 EST    0.45   0.40   11  220   17  63.5  49.3 1012.4 19.5  1.016 -99.9 -99.99 -9.99
2019/12/10 03:24 EST    0.50   0.45   10  226   14  63.9  49.3 1012.5 19.5  1.016 -99.9 -99.99 -9.99
2019/12/10 03:30 EST    0.55   0.51   11  221   16  63.7  49.3 1012.5 19.5  1.016 -99.9 -99.99 -9.99
2019/12/10 03:36 EST    0.60   0.56   12  214   19  63.7  49.1 1012.4 19.5  1.016 -99.9 -99.99 -9.99
2019/12/10 03:42 EST    0.66   0.62   10  219   14  63.5  49.3 1012.3 19.6  1.016 -99.9 -99.99 -9.99
2019/12/10 03:48 EST    0.71   0.67   10  216   16  63.3  49.3 1012.3 19.6  1.016 -99.9 -99.99 -9.99
2019/12/10 03:54 EST    0.77   0.72    9  207   13  63.1  49.3 1012.3 19.7  1.016 -99.9 -99.99 -9.99
2019/12/10 04:00 EST    0.82   0.77   11  202   15  63.5  49.3 1012.3 19.7  1.016 -99.9 -99.99 -9.99
2019/12/10 04:06 EST    0.88   0.82   11  207   17  63.5  49.3 1012.5 19.7  1.016 -99.9 -99.99 -9.99
2019/12/10 04:12 EST    0.94   0.87   10  199   14  63.1  49.3 1012.4 19.8  1.016 -99.9 -99.99 -9.99
2019/12/10 04:18 EST    1.00   0.91   13  206   17  63.5  49.3 1012.2 19.8  1.016 -99.9 -99.99 -9.99
2019/12/10 04:24 EST    1.06   0.96   13  211   17  63.5  49.3 1012.2 19.8  1.016 -99.9 -99.99 -9.99
2019/12/10 04:30 EST    1.12   1.02    8  219   15  63.1  49.3 1012.3 19.7  1.016 -99.9 -99.99 -9.99
2019/12/10 04:36 EST    1.18   1.07   11  211   15  63.3  49.3 1012.5 19.7  1.016 -99.9 -99.99 -9.99
2019/12/10 04:42 EST    1.24   1.13   11  214   15  63.3  49.3 1012.4 19.8  1.016 -99.9 -99.99 -9.99
2019/12/10 04:48 EST    1.31   1.19    8  222   12  63.1  49.3 1012.5 19.7  1.016 -99.9 -99.99 -9.99
2019/12/10 04:54 EST    1.37   1.25    8  220   15  63.3  49.3 1012.6 19.8  1.016 -99.9 -99.99 -9.99
2019/12/10 05:00 EST    1.43   1.31    9  209   11  63.3  49.3 1012.6 19.8  1.016 -99.9 -99.99 -9.99
2019/12/10 05:06 EST    1.49   1.38    9  211   12  63.3  49.3 1012.8 19.8  1.016 -99.9 -99.99 -9.99
2019/12/10 05:12 EST    1.55   1.44   10  223   14  63.3  49.5 1012.9 19.7  1.016 -99.9 -99.99 -9.99
2019/12/10 05:18 EST    1.61   1.50   11  225   14  63.5  49.5 1012.7 19.7  1.016 -99.9 -99.99 -9.99
2019/12/10 05:24 EST    1.66   1.55    7  215   16  63.0  49.3 1012.7 19.8  1.016 -99.9 -99.99 -9.99
2019/12/10 05:30 EST    1.72   1.61   10  215   13  63.3  49.3 1012.7 19.8  1.016 -99.9 -99.99 -9.99
2019/12/10 05:36 EST    1.78   1.67    8  209   13  63.0  49.3 1012.7 19.8  1.016 -99.9 -99.99 -9.99
2019/12/10 05:42 EST    1.83   1.73    7  208   13  63.0  49.3 1012.6 19.7  1.016 -99.9 -99.99 -9.99
2019/12/10 05:48 EST    1.88   1.80    8  213   11  63.1  49.1 1012.6 19.7  1.016 -99.9 -99.99 -9.99
2019/12/10 05:54 EST    1.93   1.85    8  210   12  63.0  49.1 1012.6 19.7  1.016 -99.9 -99.99 -9.99
2019/12/10 06:00 EST    1.98   1.91    9  216   12  63.1  49.1 1012.7 19.7  1.016 -99.9 -99.99 -9.99
2019/12/10 06:06 EST    2.03   1.97   11  211   13  63.1  49.1 1012.6 19.7  1.016 -99.9 -99.99 -9.99
2019/12/10 06:12 EST    2.07   2.02   10  210   15  63.1  49.1 1012.6 19.6  1.016 -99.9 -99.99 -9.99
2019/12/10 06:18 EST    2.11   2.07    9  214   13  63.1  49.1 1012.7 19.6  1.016 -99.9 -99.99 -9.99
2019/12/10 06:24 EST    2.15   2.10    7  212   11  62.8  49.1 1012.8 19.6  1.016 -99.9 -99.99 -9.99
2019/12/10 06:30 EST    2.18   2.13    9  211   12  63.0  49.3 1012.8 19.5  1.016 -99.9 -99.99 -9.99
2019/12/10 06:36 EST    2.21   2.15    9  203   13  63.1  49.3 1012.7 19.5  1.016 -99.9 -99.99 -9.99
2019/12/10 06:42 EST    2.24   2.18    8  201   14  63.1  49.3 1012.7 19.6  1.016 -99.9 -99.99 -9.99
2019/12/10 06:48 EST    2.27   2.21    8  209   13  63.0  49.3 1012.9 19.6  1.016 -99.9 -99.99 -9.99
2019/12/10 06:54 EST    2.29   2.24    8  206   13  63.0  49.3 1012.8 19.7  1.016 -99.9 -99.99 -9.99
2019/12/10 07:00 EST    2.31   2.27   10  201   17  63.3  49.1 1012.8 19.7  1.016 -99.9 -99.99 -9.99
2019/12/10 07:06 EST    2.33   2.29    9  204   14  63.3  49.1 1012.8 19.7  1.016 -99.9 -99.99 -9.99
2019/12/10 07:12 EST    2.34   2.32    9  214   13  63.1  49.1 1012.8 19.8  1.016 -99.9 -99.99 -9.99
2019/12/10 07:18 EST    2.35   2.35   10  209   15  63.3  49.1 1012.7 19.7  1.016 -99.9 -99.99 -9.99
2019/12/10 07:24 EST    2.36   2.36    9  210   14  63.3  49.1 1012.7 19.7  1.016 -99.9 -99.99 -9.99
2019/12/10 07:30 EST    2.36   2.37    9  210   18  63.3  49.1 1012.8 19.8  1.016 -99.9 -99.99 -9.99
2019/12/10 07:36 EST    2.36   2.37    9  210   17  63.3  49.1 1012.9 19.8  1.016 -99.9 -99.99 -9.99
2019/12/10 07:42 EST    2.36   2.37   11  208   17  63.3  48.9 1012.9 19.9  1.016 -99.9 -99.99 -9.99
2019/12/10 07:48 EST    2.36   2.37   11  211   19  63.5  48.9 1012.8 19.9  1.016 -99.9 -99.99 -9.99
2019/12/10 07:54 EST    2.35   2.36   14  215   19  63.7  48.9 1012.9 20.0  1.016 -99.9 -99.99 -9.99
2019/12/10 08:00 EST    2.33   2.35   14  220   23  63.9  48.9 1013.0 19.9  1.016 -99.9 -99.99 -9.99
2019/12/10 08:06 EST    2.32   2.34   11  219   21  63.5  48.9 1013.1 20.0  1.016 -99.9 -99.99 -9.99
2019/12/10 08:12 EST    2.30   2.31   12  214   18  63.9  48.9 1013.2 19.9  1.016 -99.9 -99.99 -9.99
2019/12/10 08:18 EST    2.28   2.30   11  227   15  63.7  48.9 1013.4 19.9  1.016 -99.9 -99.99 -9.99
2019/12/10 08:24 EST    2.26   2.29   11  222   15  63.7  48.9 1013.3 19.9  1.016 -99.9 -99.99 -9.99
2019/12/10 08:30 EST    2.24   2.26   11  218   14  63.9  48.9 1013.4 19.9  1.016 -99.9 -99.99 -9.99
2019/12/10 08:36 EST    2.21   2.23   12  216   16  63.7  48.9 1013.4 20.0  1.016 -99.9 -99.99 -9.99
2019/12/10 08:42 EST    2.18   2.21   10  215   15  63.7  48.9 1013.4 19.9  1.016 -99.9 -99.99 -9.99
2019/12/10 08:48 EST    2.15   2.18   12  223   16  64.0  48.9 1013.5 19.9  1.016 -99.9 -99.99 -9.99
2019/12/10 08:54 EST    2.11   2.15   10  218   18  64.0  49.3 1013.5 19.7  1.016 -99.9 -99.99 -9.99
2019/12/10 09:00 EST    2.08   2.12   10  215   15  64.0  49.5 1013.5 19.7  1.016 -99.9 -99.99 -9.99
2019/12/10 09:06 EST    2.04   2.08   14  222   18  64.2  49.5 1013.4 19.6  1.016 -99.9 -99.99 -9.99
2019/12/10 09:12 EST    2.00   2.04   15  214   20  64.4  49.8 1013.5 19.6  1.016 -99.9 -99.99 -9.99
2019/12/10 09:18 EST    1.96   2.01   12  212   17  64.4  49.8 1013.5 19.8  1.016 -99.9 -99.99 -9.99
2019/12/10 09:24 EST    1.92   1.97   11  214   17  64.2  49.8 1013.5 19.7  1.016 -99.9 -99.99 -9.99
2019/12/10 09:30 EST    1.87   1.93   14  213   17  64.8  49.8 1013.4 19.7  1.016 -99.9 -99.99 -9.99
2019/12/10 09:36 EST    1.83   1.88   13  212   23  64.8  49.6 1013.4 19.7  1.016 -99.9 -99.99 -9.99
2019/12/10 09:42 EST    1.78   1.82   15  211   22  64.9  49.6 1013.2 19.7  1.016 -99.9 -99.99 -9.99
2019/12/10 09:48 EST    1.73   1.78   13  215   18  64.8  49.6 1013.2 19.7  1.016 -99.9 -99.99 -9.99
2019/12/10 09:54 EST    1.69   1.72   12  214   20  64.6  49.6 1013.1 19.8  1.016 -99.9 -99.99 -9.99
2019/12/10 10:00 EST    1.64   1.67   12  213   21  64.9  49.6 1013.0 19.8  1.016 -99.9 -99.99 -9.99
2019/12/10 10:06 EST    1.58   1.62   16  213   20  65.1  49.6 1013.0 19.8  1.016 -99.9 -99.99 -9.99
2019/12/10 10:12 EST    1.53   1.57   14  214   18  65.3  49.8 1013.0 19.7  1.016 -99.9 -99.99 -9.99
2019/12/10 10:18 EST    1.48   1.52   12  210   18  65.3  49.8 1013.0 19.8  1.016 -99.9 -99.99 -9.99
2019/12/10 10:24 EST    1.42   1.47   13  227   22  65.7  49.8 1012.9 19.8  1.016 -99.9 -99.99 -9.99
2019/12/10 10:30 EST    1.37   1.41   14  218   25  65.7  49.8 1013.0 19.8  1.016 -99.9 -99.99 -9.99
2019/12/10 10:36 EST    1.31   1.35   13  204   19  65.8  49.8 1013.0 19.7  1.016 -99.9 -99.99 -9.99
2019/12/10 10:42 EST    1.26   1.29   17  213   21  66.2  49.8 1012.9 19.7  1.016 -99.9 -99.99 -9.99
2019/12/10 10:48 EST    1.20   1.23   16  221   22  66.2  49.8 1012.8 19.8  1.016 -99.9 -99.99 -9.99
2019/12/10 10:54 EST    1.14   1.17   14  222   18  66.2  49.8 1012.7 19.8  1.016 -99.9 -99.99 -9.99
2019/12/10 11:00 EST    1.09   1.11   16  221   20  66.4  49.6 1012.7 19.9  1.016 -99.9 -99.99 -9.99
2019/12/10 11:06 EST    1.03   1.04   15  220   24  66.6  49.6 1012.6 19.8  1.016 -99.9 -99.99 -9.99
2019/12/10 11:12 EST    0.97   0.98   17  217   23  66.9  49.6 1012.6 19.8  1.016 -99.9 -99.99 -9.99
2019/12/10 11:18 EST    0.92   0.90   12  218   18  66.9  49.6 1012.5 19.8  1.016 -99.9 -99.99 -9.99
2019/12/10 11:24 EST    0.86   0.85   17  217   22  67.1  49.6 1012.3 19.8  1.016 -99.9 -99.99 -9.99
2019/12/10 11:30 EST    0.80   0.78   17  226   23  67.1  49.6 1012.2 19.8  1.016 -99.9 -99.99 -9.99
2019/12/10 11:36 EST    0.75   0.72   12  214   20  67.3  49.6 1012.2 19.8  1.016 -99.9 -99.99 -9.99
2019/12/10 11:42 EST    0.69   0.65   15  225   23  67.5  49.6 1012.1 19.8  1.016 -99.9 -99.99 -9.99
2019/12/10 11:48 EST    0.64   0.58   14  219   19  67.6  49.8 1011.9 19.8  1.016 -99.9 -99.99 -9.99
2019/12/10 11:54 EST    0.59   0.52   12  213   18  67.8  49.8 1011.8 19.8  1.016 -99.9 -99.99 -9.99
2019/12/10 12:00 EST    0.54   0.48   18  216   24  68.0  49.8 1011.6 19.7  1.016 -99.9 -99.99 -9.99
2019/12/10 12:06 EST    0.49   0.42   12  218   22  68.2  49.3 1011.6 19.9  1.016 -99.9 -99.99 -9.99
2019/12/10 12:12 EST    0.44   0.37   15  222   19  68.4  49.6 1011.5 19.8  1.016 -99.9 -99.99 -9.99
2019/12/10 12:18 EST    0.39   0.32   13  211   21  68.4  49.6 1011.5 19.8  1.016 -99.9 -99.99 -9.99
2019/12/10 12:24 EST    0.35   0.26   15  219   19  68.7  49.8 1011.4 19.8  1.016 -99.9 -99.99 -9.99
2019/12/10 12:30 EST    0.30   0.21   15  218   23  68.9  49.8 1011.4 19.8  1.016 -99.9 -99.99 -9.99
2019/12/10 12:36 EST    0.26   0.17   13  228   21  69.1  49.8 1011.5 19.8  1.016 -99.9 -99.99 -9.99
2019/12/10 12:42 EST    0.22   0.12   15  226   18  69.3  49.5 1011.4 19.9  1.016 -99.9 -99.99 -9.99
2019/12/10 12:48 EST    0.19   0.07   17  223   23  69.3  49.1 1011.4 20.1  1.016 -99.9 -99.99 -9.99
2019/12/10 12:54 EST    0.15   0.03   16  226   21  69.1  49.5 1011.4 20.0  1.016 -99.9 -99.99 -9.99
2019/12/10 13:00 EST    0.12  -0.01   15  214   23  69.3  50.0 1011.4 19.8  1.016 -99.9 -99.99 -9.99
2019/12/10 13:06 EST    0.09  -0.04   17  228   25  69.3  50.0 1011.4 19.8  1.016 -99.9 -99.99 -9.99
2019/12/10 13:12 EST    0.06  -0.07   13  223   20  69.6  50.0 1011.2 19.9  1.016 -99.9 -99.99 -9.99
2019/12/10 13:18 EST    0.04  -0.10   13  209   19  69.6  50.2 1011.1 19.8  1.016 -99.9 -99.99 -9.99
2019/12/10 13:24 EST    0.02  -0.13   14  222   20  69.8  50.0 1010.9 19.8  1.016 -99.9 -99.99 -9.99
2019/12/10 13:30 EST   -0.00  -0.14   14  217   21  70.0  50.0 1011.0 19.8  1.016 -99.9 -99.99 -9.99
2019/12/10 13:36 EST   -0.02  -0.15   13  226   22  70.0  50.0 1011.0 19.8  1.016 -99.9 -99.99 -9.99
2019/12/10 13:42 EST   -0.03  -0.17   14  215   20  69.8  49.8 1011.0 19.9  1.016 -99.9 -99.99 -9.99
2019/12/10 13:48 EST   -0.04  -0.18   12  216   16  70.0  49.8 1011.0 19.9  1.016 -99.9 -99.99 -9.99
2019/12/10 13:54 EST   -0.05  -0.18   15  226   21  70.2  49.8 1010.9 19.9  1.016 -99.9 -99.99 -9.99
2019/12/10 14:00 EST   -0.06  -0.18   13  226   17  70.2  49.8 1011.0 19.9  1.016 -99.9 -99.99 -9.99
2019/12/10 14:06 EST   -0.06  -0.19   10  226   20  70.0  49.8 1011.0 19.9  1.016 -99.9 -99.99 -9.99
2019/12/10 14:12 EST   -0.06  -0.20   11  219   16  70.2  49.8 1011.0 19.9  1.016 -99.9 -99.99 -9.99
2019/12/10 14:18 EST   -0.06  -0.20   11  235   17  70.3  49.8 1011.1 19.9  1.016 -99.9 -99.99 -9.99
2019/12/10 14:24 EST   -0.05  -0.19   12  235   17  70.3  50.0 1011.2 19.9  1.016 -99.9 -99.99 -9.99
2019/12/10 14:30 EST   -0.05  -0.17   11  227   14  70.3  50.2 1011.2 19.8  1.016 -99.9 -99.99 -9.99
2019/12/10 14:36 EST   -0.04  -0.16   10  222   17  70.3  50.2 1011.2 19.7  1.016 -99.9 -99.99 -9.99
2019/12/10 14:42 EST   -0.02  -0.14   13  218   16  70.5  50.0 1011.2 19.8  1.016 -99.9 -99.99 -9.99
2019/12/10 14:48 EST   -0.01  -0.11   13  223   16  70.2  50.4 1011.3 19.6  1.016 -99.9 -99.99 -9.99
2019/12/10 14:54 EST    0.01  -0.08   10  227   14  70.3  50.4 1011.3 19.5  1.016 -99.9 -99.99 -9.99
2019/12/10 15:00 EST    0.03  -0.06   12  220   17  70.3  50.4 1011.3 19.5  1.016 -99.9 -99.99 -9.99
2019/12/10 15:06 EST    0.05  -0.04   15  222   19  70.7  50.4 1011.3 19.4  1.016 -99.9 -99.99 -9.99
2019/12/10 15:12 EST    0.07  -0.01    9  218   15  70.3  50.4 1011.4 19.4  1.016 -99.9 -99.99 -9.99
2019/12/10 15:18 EST    0.10   0.03   12  222   16  70.3  50.4 1011.4 19.5  1.016 -99.9 -99.99 -9.99
2019/12/10 15:24 EST    0.13   0.08   10  219   16  70.2  50.4 1011.5 19.6  1.016 -99.9 -99.99 -9.99
2019/12/10 15:30 EST    0.16   0.13    8  233   12  69.6  50.4 1011.6 19.8  1.016 -99.9 -99.99 -9.99
2019/12/10 15:36 EST    0.19   0.17    8  248   13  70.2  50.4 1011.8 19.5  1.016 -99.9 -99.99 -9.99
2019/12/10 15:42 EST    0.22   0.22   10  266   12  70.0  50.4 1011.9 19.5  1.016 -99.9 -99.99 -9.99
2019/12/10 15:48 EST    0.26   0.27   13  304   18  60.8  50.4 1012.1 19.5  1.016 -99.9 -99.99 -9.99
2019/12/10 15:54 EST    0.30   0.30   17  323   19  61.5  50.4 1012.3 19.5  1.016 -99.9 -99.99 -9.99
2019/12/10 16:00 EST    0.34   0.32   17  324   21  60.6  50.4 1012.4 19.5  1.016 -99.9 -99.99 -9.99
2019/12/10 16:06 EST    0.38 -99.99 -999 -999 -999 -99.9 -99.9 -999.9 -9.9 -9.999 -99.9 -99.99 -9.99
2019/12/10 16:12 EST    0.42 -99.99 -999 -999 -999 -99.9 -99.9 -999.9 -9.9 -9.999 -99.9 -99.99 -9.99
2019/12/10 16:18 EST    0.47 -99.99 -999 -999 -999 -99.9 -99.9 -999.9 -9.9 -9.999 -99.9 -99.99 -9.99
2019/12/10 16:24 EST    0.51 -99.99 -999 -999 -999 -99.9 -99.9 -999.9 -9.9 -9.999 -99.9 -99.99 -9.99
2019/12/10 16:30 EST    0.56 -99.99 -999 -999 -999 -99.9 -99.9 -999.9 -9.9 -9.999 -99.9 -99.99 -9.99
2019/12/10 16:36 EST    0.61 -99.99 -999 -999 -999 -99.9 -99.9 -999.9 -9.9 -9.999 -99.9 -99.99 -9.99
2019/12/10 16:42 EST    0.66 -99.99 -999 -999 -999 -99.9 -99.9 -999.9 -9.9 -9.999 -99.9 -99.99 -9.99
2019/12/10 16:48 EST    0.71 -99.99 -999 -999 -999 -99.9 -99.9 -999.9 -9.9 -9.999 -99.9 -99.99 -9.99
2019/12/10 16:54 EST    0.76 -99.99 -999 -999 -999 -99.9 -99.9 -999.9 -9.9 -9.999 -99.9 -99.99 -9.99
2019/12/10 17:00 EST    0.82 -99.99 -999 -999 -999 -99.9 -99.9 -999.9 -9.9 -9.999 -99.9 -99.99 -9.99
2019/12/10 17:06 EST    0.87 -99.99 -999 -999 -999 -99.9 -99.9 -999.9 -9.9 -9.999 -99.9 -99.99 -9.99
2019/12/10 17:12 EST    0.92 -99.99 -999 -999 -999 -99.9 -99.9 -999.9 -9.9 -9.999 -99.9 -99.99 -9.99
2019/12/10 17:18 EST    0.98 -99.99 -999 -999 -999 -99.9 -99.9 -999.9 -9.9 -9.999 -99.9 -99.99 -9.99
2019/12/10 17:24 EST    1.03 -99.99 -999 -999 -999 -99.9 -99.9 -999.9 -9.9 -9.999 -99.9 -99.99 -9.99
2019/12/10 17:30 EST    1.09 -99.99 -999 -999 -999 -99.9 -99.9 -999.9 -9.9 -9.999 -99.9 -99.99 -9.99
2019/12/10 17:36 EST    1.14 -99.99 -999 -999 -999 -99.9 -99.9 -999.9 -9.9 -9.999 -99.9 -99.99 -9.99
2019/12/10 17:42 EST    1.20 -99.99 -999 -999 -999 -99.9 -99.9 -999.9 -9.9 -9.999 -99.9 -99.99 -9.99
2019/12/10 17:48 EST    1.25 -99.99 -999 -999 -999 -99.9 -99.9 -999.9 -9.9 -9.999 -99.9 -99.99 -9.99
2019/12/10 17:54 EST    1.31 -99.99 -999 -999 -999 -99.9 -99.9 -999.9 -9.9 -9.999 -99.9 -99.99 -9.99
2019/12/10 18:00 EST    1.36 -99.99 -999 -999 -999 -99.9 -99.9 -999.9 -9.9 -9.999 -99.9 -99.99 -9.99
2019/12/10 18:06 EST    1.41 -99.99 -999 -999 -999 -99.9 -99.9 -999.9 -9.9 -9.999 -99.9 -99.99 -9.99
2019/12/10 18:12 EST    1.46 -99.99 -999 -999 -999 -99.9 -99.9 -999.9 -9.9 -9.999 -99.9 -99.99 -9.99
2019/12/10 18:18 EST    1.50 -99.99 -999 -999 -999 -99.9 -99.9 -999.9 -9.9 -9.999 -99.9 -99.99 -9.99
2019/12/10 18:24 EST    1.55 -99.99 -999 -999 -999 -99.9 -99.9 -999.9 -9.9 -9.999 -99.9 -99.99 -9.99
2019/12/10 18:30 EST    1.59 -99.99 -999 -999 -999 -99.9 -99.9 -999.9 -9.9 -9.999 -99.9 -99.99 -9.99
2019/12/10 18:36 EST    1.64 -99.99 -999 -999 -999 -99.9 -99.9 -999.9 -9.9 -9.999 -99.9 -99.99 -9.99
2019/12/10 18:42 EST    1.67 -99.99 -999 -999 -999 -99.9 -99.9 -999.9 -9.9 -9.999 -99.9 -99.99 -9.99
2019/12/10 18:48 EST    1.71 -99.99 -999 -999 -999 -99.9 -99.9 -999.9 -9.9 -9.999 -99.9 -99.99 -9.99
2019/12/10 18:54 EST    1.74 -99.99 -999 -999 -999 -99.9 -99.9 -999.9 -9.9 -9.999 -99.9 -99.99 -9.99
2019/12/10 19:00 EST    1.78 -99.99 -999 -999 -999 -99.9 -99.9 -999.9 -9.9 -9.999 -99.9 -99.99 -9.99
2019/12/10 19:06 EST    1.80 -99.99 -999 -999 -999 -99.9 -99.9 -999.9 -9.9 -9.999 -99.9 -99.99 -9.99
2019/12/10 19:12 EST    1.83 -99.99 -999 -999 -999 -99.9 -99.9 -999.9 -9.9 -9.999 -99.9 -99.99 -9.99
2019/12/10 19:18 EST    1.85 -99.99 -999 -999 -999 -99.9 -99.9 -999.9 -9.9 -9.999 -99.9 -99.99 -9.99
2019/12/10 19:24 EST    1.87 -99.99 -999 -999 -999 -99.9 -99.9 -999.9 -9.9 -9.999 -99.9 -99.99 -9.99
2019/12/10 19:30 EST    1.89 -99.99 -999 -999 -999 -99.9 -99.9 -999.9 -9.9 -9.999 -99.9 -99.99 -9.99
2019/12/10 19:36 EST    1.90 -99.99 -999 -999 -999 -99.9 -99.9 -999.9 -9.9 -9.999 -99.9 -99.99 -9.99
2019/12/10 19:42 EST    1.91 -99.99 -999 -999 -999 -99.9 -99.9 -999.9 -9.9 -9.999 -99.9 -99.99 -9.99
2019/12/10 19:48 EST    1.92 -99.99 -999 -999 -999 -99.9 -99.9 -999.9 -9.9 -9.999 -99.9 -99.99 -9.99
2019/12/10 19:54 EST    1.92 -99.99 -999 -999 -999 -99.9 -99.9 -999.9 -9.9 -9.999 -99.9 -99.99 -9.99
2019/12/10 20:00 EST    1.92 -99.99 -999 -999 -999 -99.9 -99.9 -999.9 -9.9 -9.999 -99.9 -99.99 -9.99
2019/12/10 20:06 EST    1.92 -99.99 -999 -999 -999 -99.9 -99.9 -999.9 -9.9 -9.999 -99.9 -99.99 -9.99
2019/12/10 20:12 EST    1.91 -99.99 -999 -999 -999 -99.9 -99.9 -999.9 -9.9 -9.999 -99.9 -99.99 -9.99
2019/12/10 20:18 EST    1.90 -99.99 -999 -999 -999 -99.9 -99.9 -999.9 -9.9 -9.999 -99.9 -99.99 -9.99
2019/12/10 20:24 EST    1.89 -99.99 -999 -999 -999 -99.9 -99.9 -999.9 -9.9 -9.999 -99.9 -99.99 -9.99
2019/12/10 20:30 EST    1.88 -99.99 -999 -999 -999 -99.9 -99.9 -999.9 -9.9 -9.999 -99.9 -99.99 -9.99
2019/12/10 20:36 EST    1.86 -99.99 -999 -999 -999 -99.9 -99.9 -999.9 -9.9 -9.999 -99.9 -99.99 -9.99
2019/12/10 20:42 EST    1.84 -99.99 -999 -999 -999 -99.9 -99.9 -999.9 -9.9 -9.999 -99.9 -99.99 -9.99
2019/12/10 20:48 EST    1.82 -99.99 -999 -999 -999 -99.9 -99.9 -999.9 -9.9 -9.999 -99.9 -99.99 -9.99
2019/12/10 20:54 EST    1.79 -99.99 -999 -999 -999 -99.9 -99.9 -999.9 -9.9 -9.999 -99.9 -99.99 -9.99
2019/12/10 21:00 EST    1.77 -99.99 -999 -999 -999 -99.9 -99.9 -999.9 -9.9 -9.999 -99.9 -99.99 -9.99
2019/12/10 21:06 EST    1.74 -99.99 -999 -999 -999 -99.9 -99.9 -999.9 -9.9 -9.999 -99.9 -99.99 -9.99
2019/12/10 21:12 EST    1.70 -99.99 -999 -999 -999 -99.9 -99.9 -999.9 -9.9 -9.999 -99.9 -99.99 -9.99
2019/12/10 21:18 EST    1.67 -99.99 -999 -999 -999 -99.9 -99.9 -999.9 -9.9 -9.999 -99.9 -99.99 -9.99
2019/12/10 21:24 EST    1.63 -99.99 -999 -999 -999 -99.9 -99.9 -999.9 -9.9 -9.999 -99.9 -99.99 -9.99
2019/12/10 21:30 EST    1.60 -99.99 -999 -999 -999 -99.9 -99.9 -999.9 -9.9 -9.999 -99.9 -99.99 -9.99
2019/12/10 21:36 EST    1.56 -99.99 -999 -999 -999 -99.9 -99.9 -999.9 -9.9 -9.999 -99.9 -99.99 -9.99
2019/12/10 21:42 EST    1.52 -99.99 -999 -999 -999 -99.9 -99.9 -999.9 -9.9 -9.999 -99.9 -99.99 -9.99
2019/12/10 21:48 EST    1.47 -99.99 -999 -999 -999 -99.9 -99.9 -999.9 -9.9 -9.999 -99.9 -99.99 -9.99
2019/12/10 21:54 EST    1.43 -99.99 -999 -999 -999 -99.9 -99.9 -999.9 -9.9 -9.999 -99.9 -99.99 -9.99
2019/12/10 22:00 EST    1.38 -99.99 -999 -999 -999 -99.9 -99.9 -999.9 -9.9 -9.999 -99.9 -99.99 -9.99
2019/12/10 22:06 EST    1.34 -99.99 -999 -999 -999 -99.9 -99.9 -999.9 -9.9 -9.999 -99.9 -99.99 -9.99
2019/12/10 22:12 EST    1.29 -99.99 -999 -999 -999 -99.9 -99.9 -999.9 -9.9 -9.999 -99.9 -99.99 -9.99
2019/12/10 22:18 EST    1.24 -99.99 -999 -999 -999 -99.9 -99.9 -999.9 -9.9 -9.999 -99.9 -99.99 -9.99